Time;durP1;ratioP1;P1;durP2;ratioP2;P2;SDS_P1;SDS_P2;PMS_P1;PMS_P2;Temp;Humidity;BMP_temperature;BMP_pressure;BME280_temperature;BME280_humidity;BME280_pressure;Samples;Min_cycle;Max_cycle;Signal;HPM_P1;HPM_P2
2022/10/07 00:01:34;;;;;;;0.20;0.20;;;;;;;;;;4947411;28;20125;-76
2022/10/07 00:04:00;;;;;;;0.20;0.20;;;;;;;;;;4954316;28;20044;-76
2022/10/07 00:06:29;;;;;;;0.13;0.13;;;;;;;;;;4949569;28;20046;-77
2022/10/07 00:09:00;;;;;;;0.20;0.20;;;;;;;;;;4948877;28;20066;-77
2022/10/07 00:11:27;;;;;;;0.20;0.20;;;;;;;;;;4964226;28;20043;-77
2022/10/07 00:13:55;;;;;;;0.20;0.20;;;;;;;;;;4955623;28;20094;-77
2022/10/07 00:16:23;;;;;;;0.20;0.20;;;;;;;;;;4948723;28;20046;-77
2022/10/07 00:18:56;;;;;;;0.10;0.10;;;;;;;;;;4947159;28;20419;-78
2022/10/07 00:21:22;;;;;;;0.10;0.10;;;;;;;;;;4947785;28;20035;-77
2022/10/07 00:23:51;;;;;;;0.10;0.10;;;;;;;;;;4934870;29;20047;-78
2022/10/07 00:26:19;;;;;;;0.10;0.10;;;;;;;;;;4948311;28;20034;-76
2022/10/07 00:28:45;;;;;;;0.20;0.20;;;;;;;;;;4950227;28;20388;-76
2022/10/07 00:31:18;;;;;;;0.20;0.20;;;;;;;;;;4965869;28;20509;-77
2022/10/07 00:33:45;;;;;;;0.20;0.20;;;;;;;;;;4951977;28;20046;-76
2022/10/07 00:36:19;;;;;;;0.15;0.15;;;;;;;;;;4949231;28;20039;-77
2022/10/07 00:38:49;;;;;;;0.10;0.10;;;;;;;;;;4971006;28;20051;-77
2022/10/07 00:41:20;;;;;;;0.17;0.17;;;;;;;;;;4955408;28;20125;-77
2022/10/07 00:43:47;;;;;;;0.10;0.10;;;;;;;;;;4947970;28;20149;-76
2022/10/07 00:46:31;;;;;;;0.17;0.17;;;;;;;;;;4974558;28;20039;-77
2022/10/07 00:49:02;;;;;;;0.10;0.10;;;;;;;;;;4965185;28;20043;-76
2022/10/07 00:51:30;;;;;;;0.20;0.20;;;;;;;;;;4951446;28;20054;-77
2022/10/07 00:53:58;;;;;;;0.13;0.13;;;;;;;;;;4983700;28;20817;-75
2022/10/07 00:56:26;;;;;;;0.20;0.20;;;;;;;;;;4959918;28;20043;-76
2022/10/07 00:58:55;;;;;;;0.20;0.20;;;;;;;;;;4951154;28;20126;-77
2022/10/07 01:01:21;;;;;;;0.20;0.20;;;;;;;;;;4972565;28;20058;-75
2022/10/07 01:03:57;;;;;;;0.63;0.30;;;;;;;;;;4950818;28;20058;-77
2022/10/07 01:06:23;;;;;;;0.20;0.20;;;;;;;;;;4967392;28;20061;-76
2022/10/07 01:08:51;;;;;;;0.15;0.15;;;;;;;;;;4949267;28;20498;-77
2022/10/07 01:11:23;;;;;;;0.10;0.10;;;;;;;;;;4965154;28;20090;-77
2022/10/07 01:13:55;;;;;;;0.10;0.10;;;;;;;;;;4954219;28;20047;-76
2022/10/07 01:16:42;;;;;;;0.20;0.20;;;;;;;;;;4955197;28;20046;-76
2022/10/07 01:19:22;;;;;;;0.20;0.20;;;;;;;;;;4953352;28;20077;-77
2022/10/07 01:22:06;;;;;;;0.10;0.10;;;;;;;;;;4952264;28;20078;-77
2022/10/07 01:24:46;;;;;;;0.80;0.38;;;;;;;;;;4950316;28;20034;-76
2022/10/07 01:27:19;;;;;;;0.10;0.10;;;;;;;;;;4970606;28;20554;-76
2022/10/07 01:29:54;;;;;;;0.10;0.10;;;;;;;;;;4971644;28;20700;-77
2022/10/07 01:32:42;;;;;;;0.15;0.15;;;;;;;;;;4972141;28;20046;-77
2022/10/07 01:35:12;;;;;;;0.20;0.20;;;;;;;;;;4949461;28;20101;-76
2022/10/07 01:37:42;;;;;;;0.10;0.10;;;;;;;;;;4970291;28;20043;-77
2022/10/07 01:40:15;;;;;;;0.10;0.10;;;;;;;;;;4938199;29;20051;-77
2022/10/07 01:42:45;;;;;;;0.10;0.10;;;;;;;;;;4964228;28;20093;-76
2022/10/07 01:45:15;;;;;;;0.17;0.17;;;;;;;;;;4971188;28;20575;-75
2022/10/07 01:47:42;;;;;;;0.10;0.10;;;;;;;;;;4961730;28;20035;-77
2022/10/07 01:50:17;;;;;;;0.20;0.20;;;;;;;;;;4949195;28;20060;-76
2022/10/07 01:52:54;;;;;;;0.20;0.20;;;;;;;;;;4952213;28;20074;-77
2022/10/07 01:55:31;;;;;;;0.10;0.10;;;;;;;;;;4971119;28;20054;-77
2022/10/07 01:57:57;;;;;;;0.10;0.10;;;;;;;;;;4963165;28;20439;-75
2022/10/07 02:00:23;;;;;;;0.20;0.20;;;;;;;;;;4953077;28;20051;-78
2022/10/07 02:02:53;;;;;;;0.20;0.20;;;;;;;;;;4951493;28;20047;-77
2022/10/07 02:05:44;;;;;;;0.20;0.20;;;;;;;;;;4952480;28;20047;-77
2022/10/07 02:08:20;;;;;;;0.20;0.20;;;;;;;;;;4946848;28;20053;-77
2022/10/07 02:10:46;;;;;;;0.20;0.20;;;;;;;;;;4969887;28;20039;-77
2022/10/07 02:13:12;;;;;;;0.20;0.20;;;;;;;;;;4965544;28;20059;-77
2022/10/07 02:15:40;;;;;;;0.10;0.10;;;;;;;;;;4954134;29;20130;-76
2022/10/07 02:18:08;;;;;;;0.20;0.20;;;;;;;;;;4951210;28;20197;-75
2022/10/07 02:20:35;;;;;;;0.10;0.10;;;;;;;;;;4955081;28;20042;-75
2022/10/07 02:23:02;;;;;;;0.10;0.10;;;;;;;;;;4958370;28;20513;-77
2022/10/07 02:25:32;;;;;;;0.20;0.20;;;;;;;;;;4954057;28;20039;-77
2022/10/07 02:28:02;;;;;;;0.20;0.20;;;;;;;;;;4948183;29;20049;-78
2022/10/07 02:30:31;;;;;;;0.13;0.13;;;;;;;;;;4952801;28;20054;-76
2022/10/07 02:33:02;;;;;;;0.10;0.10;;;;;;;;;;4956825;28;20055;-76
2022/10/07 02:35:28;;;;;;;0.10;0.10;;;;;;;;;;4982922;28;20038;-77
2022/10/07 02:37:57;;;;;;;0.17;0.17;;;;;;;;;;4958291;28;20054;-77
2022/10/07 02:40:25;;;;;;;0.20;0.20;;;;;;;;;;4947477;28;20078;-77
2022/10/07 02:43:05;;;;;;;0.20;0.20;;;;;;;;;;4953650;28;20415;-77
2022/10/07 02:45:42;;;;;;;0.20;0.20;;;;;;;;;;4955703;28;20050;-77
2022/10/07 02:48:24;;;;;;;0.10;0.10;;;;;;;;;;4968482;28;20046;-77
2022/10/07 02:50:52;;;;;;;0.13;0.13;;;;;;;;;;4935285;29;20396;-77
2022/10/07 02:53:20;;;;;;;0.13;0.13;;;;;;;;;;4970038;28;20391;-77
2022/10/07 02:55:51;;;;;;;0.10;0.10;;;;;;;;;;4952530;28;20051;-77
2022/10/07 02:58:18;;;;;;;0.20;0.20;;;;;;;;;;4981944;28;20050;-77
2022/10/07 03:00:47;;;;;;;0.15;0.15;;;;;;;;;;4988583;28;20502;-76
2022/10/07 03:03:15;;;;;;;0.20;0.20;;;;;;;;;;4985641;28;20584;-77
2022/10/07 03:05:48;;;;;;;0.10;0.10;;;;;;;;;;4990365;28;21051;-77
2022/10/07 03:08:14;;;;;;;0.20;0.20;;;;;;;;;;4986692;28;20046;-77
2022/10/07 03:10:40;;;;;;;0.20;0.20;;;;;;;;;;4989188;28;20452;-75
2022/10/07 03:13:06;;;;;;;0.20;0.20;;;;;;;;;;4988861;28;20141;-77
2022/10/07 03:15:35;;;;;;;0.20;0.20;;;;;;;;;;4990215;28;20133;-77
2022/10/07 03:18:02;;;;;;;0.20;0.20;;;;;;;;;;4986012;28;20058;-78
2022/10/07 03:20:29;;;;;;;0.20;0.20;;;;;;;;;;4989925;28;20080;-77
2022/10/07 03:22:58;;;;;;;0.10;0.10;;;;;;;;;;4988955;28;20422;-77
2022/10/07 03:25:25;;;;;;;0.10;0.10;;;;;;;;;;4978189;28;20129;-77
2022/10/07 03:27:53;;;;;;;0.10;0.10;;;;;;;;;;4983976;28;20061;-78
2022/10/07 03:30:21;;;;;;;0.10;0.10;;;;;;;;;;4985926;28;20038;-77
2022/10/07 03:32:50;;;;;;;0.10;0.10;;;;;;;;;;4984198;28;20656;-77
2022/10/07 03:35:16;;;;;;;0.13;0.13;;;;;;;;;;4989415;28;20138;-76
2022/10/07 03:37:44;;;;;;;0.10;0.10;;;;;;;;;;4985607;28;20833;-77
2022/10/07 03:40:10;;;;;;;0.20;0.20;;;;;;;;;;4989215;28;20042;-78
2022/10/07 03:42:36;;;;;;;0.15;0.15;;;;;;;;;;4988939;28;20593;-77
2022/10/07 03:45:02;;;;;;;0.10;0.10;;;;;;;;;;4988208;28;20062;-77
2022/10/07 03:47:29;;;;;;;0.10;0.10;;;;;;;;;;4989146;28;20400;-77
2022/10/07 03:49:56;;;;;;;0.10;0.10;;;;;;;;;;4983579;28;20470;-77
2022/10/07 03:52:22;;;;;;;0.10;0.10;;;;;;;;;;4983398;28;20053;-77
2022/10/07 03:54:48;;;;;;;0.20;0.20;;;;;;;;;;4985121;28;20057;-77
2022/10/07 03:59:59;;;;;;;0.20;0.20;;;;;;;;;;4987200;28;20065;-77
2022/10/07 04:02:25;;;;;;;0.10;0.10;;;;;;;;;;4987695;28;20046;-77
2022/10/07 04:04:57;;;;;;;0.20;0.20;;;;;;;;;;4985388;28;20069;-77
2022/10/07 04:07:23;;;;;;;0.20;0.20;;;;;;;;;;4985606;28;20129;-76
2022/10/07 04:09:49;;;;;;;0.20;0.20;;;;;;;;;;4985176;28;20047;-76
2022/10/07 04:12:15;;;;;;;0.10;0.10;;;;;;;;;;4991893;28;20188;-77
2022/10/07 04:14:41;;;;;;;0.20;0.20;;;;;;;;;;4991903;28;20066;-75
2022/10/07 04:17:07;;;;;;;0.10;0.10;;;;;;;;;;4995973;28;20035;-77
2022/10/07 04:19:34;;;;;;;0.10;0.10;;;;;;;;;;4984247;28;20038;-77
2022/10/07 04:22:00;;;;;;;0.20;0.20;;;;;;;;;;4991462;28;20057;-77
2022/10/07 04:24:26;;;;;;;0.22;0.22;;;;;;;;;;4987617;28;20046;-77
2022/10/07 04:26:52;;;;;;;0.10;0.10;;;;;;;;;;4989969;28;20596;-77
2022/10/07 04:29:18;;;;;;;0.17;0.17;;;;;;;;;;4991435;28;20410;-77
2022/10/07 04:31:44;;;;;;;0.20;0.20;;;;;;;;;;4988482;28;20057;-77
2022/10/07 04:34:10;;;;;;;0.10;0.10;;;;;;;;;;4990012;28;20050;-77
2022/10/07 04:36:36;;;;;;;0.20;0.20;;;;;;;;;;4991095;28;20046;-77
2022/10/07 04:39:03;;;;;;;0.20;0.20;;;;;;;;;;4990316;28;20166;-77
2022/10/07 04:41:34;;;;;;;0.20;0.20;;;;;;;;;;4990434;28;20473;-78
2022/10/07 04:44:00;;;;;;;0.20;0.20;;;;;;;;;;4989920;28;20046;-76
2022/10/07 04:46:27;;;;;;;0.10;0.10;;;;;;;;;;4990728;28;20116;-77
2022/10/07 04:48:53;;;;;;;0.20;0.20;;;;;;;;;;4984768;28;20051;-77
2022/10/07 04:51:21;;;;;;;0.20;0.20;;;;;;;;;;4987913;28;20042;-76
2022/10/07 04:53:53;;;;;;;0.10;0.10;;;;;;;;;;4990555;28;20504;-76
2022/10/07 04:56:19;;;;;;;0.20;0.20;;;;;;;;;;4988943;28;20038;-76
2022/10/07 04:58:45;;;;;;;0.10;0.10;;;;;;;;;;4972030;28;20062;-77
2022/10/07 05:01:11;;;;;;;0.17;0.17;;;;;;;;;;4950445;28;20126;-76
2022/10/07 05:03:38;;;;;;;0.20;0.20;;;;;;;;;;4952778;28;20074;-76
2022/10/07 05:06:04;;;;;;;0.10;0.10;;;;;;;;;;4971013;28;20047;-77
2022/10/07 05:08:30;;;;;;;0.20;0.20;;;;;;;;;;4947031;28;20194;-77
2022/10/07 05:10:57;;;;;;;0.20;0.20;;;;;;;;;;4968918;28;20105;-76
2022/10/07 05:13:24;;;;;;;0.20;0.20;;;;;;;;;;4951326;28;20067;-76
2022/10/07 05:15:57;;;;;;;0.20;0.20;;;;;;;;;;4971024;28;20093;-77
2022/10/07 05:18:25;;;;;;;0.13;0.13;;;;;;;;;;4968653;28;20122;-77
2022/10/07 05:20:51;;;;;;;0.20;0.20;;;;;;;;;;4966751;28;20113;-78
2022/10/07 05:23:19;;;;;;;0.20;0.20;;;;;;;;;;4951235;28;20071;-77
2022/10/07 05:25:45;;;;;;;0.10;0.10;;;;;;;;;;4950507;28;20050;-77
2022/10/07 05:28:12;;;;;;;0.20;0.20;;;;;;;;;;4970852;28;20041;-77
2022/10/07 05:30:38;;;;;;;0.13;0.13;;;;;;;;;;4951195;28;20133;-76
2022/10/07 05:33:05;;;;;;;0.10;0.10;;;;;;;;;;4953169;28;20113;-78
2022/10/07 05:35:32;;;;;;;0.20;0.20;;;;;;;;;;4954256;28;20043;-78
2022/10/07 05:38:01;;;;;;;0.20;0.20;;;;;;;;;;4969052;28;20443;-78
2022/10/07 05:40:28;;;;;;;0.10;0.10;;;;;;;;;;4972229;28;20054;-78
2022/10/07 05:42:54;;;;;;;0.10;0.10;;;;;;;;;;4950479;28;20059;-76
2022/10/07 05:45:20;;;;;;;0.10;0.10;;;;;;;;;;4972249;28;20043;-77
2022/10/07 05:47:46;;;;;;;0.20;0.20;;;;;;;;;;4950202;29;20039;-78
2022/10/07 05:50:12;;;;;;;0.10;0.10;;;;;;;;;;4972738;28;20039;-77
2022/10/07 05:52:41;;;;;;;0.13;0.13;;;;;;;;;;4972025;28;20499;-79
2022/10/07 05:55:07;;;;;;;0.10;0.10;;;;;;;;;;4987461;28;20046;-77
2022/10/07 05:57:33;;;;;;;0.10;0.10;;;;;;;;;;4984506;28;20051;-79
2022/10/07 06:00:00;;;;;;;0.10;0.10;;;;;;;;;;4952736;28;20137;-80
2022/10/07 06:02:26;;;;;;;0.20;0.20;;;;;;;;;;4968073;28;20035;-81
2022/10/07 06:04:52;;;;;;;0.17;0.17;;;;;;;;;;4970438;28;20042;-79
2022/10/07 06:07:18;;;;;;;0.10;0.10;;;;;;;;;;4968036;28;20094;-80
2022/10/07 06:15:14;;;;;;;0.10;0.10;;;;;;;;;;4971888;28;20176;-80
2022/10/07 06:17:43;;;;;;;0.20;0.20;;;;;;;;;;4972502;28;20431;-79
2022/10/07 06:20:10;;;;;;;0.10;0.10;;;;;;;;;;4972211;28;20415;-75
2022/10/07 06:22:36;;;;;;;0.20;0.20;;;;;;;;;;4970306;28;20057;-80
2022/10/07 06:25:02;;;;;;;1.55;0.40;;;;;;;;;;4949073;28;20623;-77
2022/10/07 06:27:28;;;;;;;0.20;0.20;;;;;;;;;;4953227;28;20424;-77
2022/10/07 06:29:54;;;;;;;0.15;0.15;;;;;;;;;;4956862;28;20038;-77
2022/10/07 06:32:21;;;;;;;0.10;0.10;;;;;;;;;;4948793;28;20057;-78
2022/10/07 06:34:47;;;;;;;0.10;0.10;;;;;;;;;;4938435;28;20561;-77
2022/10/07 06:37:14;;;;;;;0.10;0.10;;;;;;;;;;4966512;28;20054;-76
2022/10/07 06:39:40;;;;;;;0.15;0.15;;;;;;;;;;4958201;28;20053;-77
2022/10/07 06:42:06;;;;;;;0.15;0.15;;;;;;;;;;4948989;28;20047;-77
2022/10/07 06:44:32;;;;;;;0.15;0.15;;;;;;;;;;4967161;28;20121;-77
2022/10/07 06:46:58;;;;;;;0.10;0.10;;;;;;;;;;4951514;28;20051;-78
2022/10/07 06:49:24;;;;;;;0.10;0.10;;;;;;;;;;4941487;28;20053;-77
2022/10/07 06:51:50;;;;;;;0.10;0.10;;;;;;;;;;4969879;28;20043;-76
2022/10/07 06:54:16;;;;;;;0.17;0.17;;;;;;;;;;4949189;28;20130;-77
2022/10/07 06:56:42;;;;;;;0.10;0.10;;;;;;;;;;4949386;28;20071;-77
2022/10/07 06:59:09;;;;;;;0.10;0.10;;;;;;;;;;4969075;28;20400;-77
2022/10/07 07:01:35;;;;;;;0.20;0.20;;;;;;;;;;4949909;28;20051;-77
2022/10/07 07:04:01;;;;;;;0.20;0.20;;;;;;;;;;4962885;28;20055;-78
2022/10/07 07:06:28;;;;;;;0.20;0.20;;;;;;;;;;4967386;28;20042;-78
2022/10/07 07:09:03;;;;;;;0.15;0.15;;;;;;;;;;4939304;29;20455;-78
2022/10/07 07:11:35;;;;;;;0.20;0.20;;;;;;;;;;4947443;28;20098;-78
2022/10/07 07:14:02;;;;;;;0.13;0.13;;;;;;;;;;4954256;28;20487;-79
2022/10/07 07:16:29;;;;;;;0.20;0.20;;;;;;;;;;4954007;28;20061;-79
2022/10/07 07:18:57;;;;;;;0.20;0.20;;;;;;;;;;4940050;28;20644;-78
2022/10/07 07:21:24;;;;;;;0.10;0.10;;;;;;;;;;4971557;28;20082;-75
2022/10/07 07:23:50;;;;;;;0.20;0.20;;;;;;;;;;4966777;28;20055;-76
2022/10/07 07:26:19;;;;;;;0.20;0.20;;;;;;;;;;4953429;28;20090;-77
2022/10/07 07:28:52;;;;;;;0.10;0.10;;;;;;;;;;4955710;28;20137;-78
2022/10/07 07:31:18;;;;;;;0.10;0.10;;;;;;;;;;4954663;28;20567;-77
2022/10/07 07:33:51;;;;;;;0.10;0.10;;;;;;;;;;4955258;28;20084;-76
2022/10/07 07:36:17;;;;;;;0.10;0.10;;;;;;;;;;4970625;28;20376;-78
2022/10/07 07:38:50;;;;;;;0.10;0.10;;;;;;;;;;4953520;28;20051;-77
2022/10/07 07:41:16;;;;;;;0.20;0.20;;;;;;;;;;4954318;28;20542;-78
2022/10/07 07:43:42;;;;;;;0.10;0.10;;;;;;;;;;4971482;28;20116;-77
2022/10/07 07:46:10;;;;;;;0.20;0.20;;;;;;;;;;4970732;28;20057;-78
2022/10/07 07:48:36;;;;;;;0.20;0.20;;;;;;;;;;4951565;28;20074;-77
2022/10/07 07:51:05;;;;;;;0.10;0.10;;;;;;;;;;4972055;28;20035;-77
2022/10/07 07:53:36;;;;;;;0.10;0.10;;;;;;;;;;4952633;28;20137;-78
2022/10/07 07:56:02;;;;;;;0.13;0.13;;;;;;;;;;4971546;28;20130;-77
2022/10/07 07:58:28;;;;;;;0.20;0.20;;;;;;;;;;4954059;28;20065;-77
2022/10/07 08:00:59;;;;;;;0.10;0.10;;;;;;;;;;4954095;28;20093;-78
2022/10/07 08:03:25;;;;;;;0.10;0.10;;;;;;;;;;4952947;28;20043;-77
2022/10/07 08:05:51;;;;;;;0.20;0.20;;;;;;;;;;4953322;28;20050;-77
2022/10/07 08:08:17;;;;;;;0.10;0.10;;;;;;;;;;4953967;28;20186;-77
2022/10/07 08:10:43;;;;;;;0.10;0.10;;;;;;;;;;4950962;28;20134;-78
2022/10/07 08:13:09;;;;;;;0.20;0.20;;;;;;;;;;4963938;28;20442;-78
2022/10/07 08:15:36;;;;;;;0.10;0.10;;;;;;;;;;4953610;28;20100;-77
2022/10/07 08:18:04;;;;;;;0.20;0.20;;;;;;;;;;4952854;28;20138;-78
2022/10/07 08:20:31;;;;;;;0.30;0.20;;;;;;;;;;4952464;28;20125;-76
2022/10/07 08:22:58;;;;;;;0.20;0.20;;;;;;;;;;4971188;28;20043;-77
2022/10/07 08:25:27;;;;;;;0.10;0.10;;;;;;;;;;4954530;28;20061;-78
2022/10/07 08:27:56;;;;;;;0.20;0.20;;;;;;;;;;4970475;28;20085;-76
2022/10/07 08:30:23;;;;;;;0.15;0.15;;;;;;;;;;4954677;28;20050;-77
2022/10/07 08:32:49;;;;;;;0.15;0.15;;;;;;;;;;4953274;28;20039;-77
2022/10/07 08:35:15;;;;;;;0.10;0.10;;;;;;;;;;4953671;28;20055;-76
2022/10/07 08:37:41;;;;;;;0.20;0.20;;;;;;;;;;4955007;28;20102;-77
2022/10/07 08:40:07;;;;;;;0.20;0.20;;;;;;;;;;4971484;28;20046;-77
2022/10/07 08:42:36;;;;;;;0.20;0.20;;;;;;;;;;4971225;28;20490;-77
2022/10/07 08:45:02;;;;;;;0.20;0.20;;;;;;;;;;4954735;28;20047;-78
2022/10/07 08:47:38;;;;;;;0.10;0.10;;;;;;;;;;4954759;28;20423;-76
2022/10/07 08:50:24;;;;;;;0.10;0.10;;;;;;;;;;4970724;28;20414;-77
2022/10/07 08:52:52;;;;;;;0.10;0.10;;;;;;;;;;4972818;28;20047;-77
2022/10/07 08:55:24;;;;;;;0.20;0.20;;;;;;;;;;4957745;28;20050;-78
2022/10/07 08:58:13;;;;;;;0.20;0.20;;;;;;;;;;4976107;28;20086;-77
2022/10/07 09:00:46;;;;;;;0.10;0.10;;;;;;;;;;4993624;28;20050;-78
2022/10/07 09:03:20;;;;;;;0.20;0.20;;;;;;;;;;4977439;28;20385;-77
2022/10/07 09:05:48;;;;;;;0.20;0.20;;;;;;;;;;4994712;28;20543;-78
2022/10/07 09:08:27;;;;;;;0.20;0.20;;;;;;;;;;4994520;28;20053;-77
2022/10/07 09:10:54;;;;;;;0.20;0.20;;;;;;;;;;4992703;28;20065;-76
2022/10/07 09:13:24;;;;;;;0.20;0.20;;;;;;;;;;5001886;28;20046;-77
2022/10/07 09:16:17;;;;;;;0.10;0.10;;;;;;;;;;4993178;28;20046;-77
2022/10/07 09:18:58;;;;;;;0.10;0.10;;;;;;;;;;4980723;28;20455;-78
2022/10/07 09:21:44;;;;;;;0.10;0.10;;;;;;;;;;4987614;28;20050;-79
2022/10/07 09:24:17;;;;;;;0.17;0.17;;;;;;;;;;4992676;28;20061;-78
2022/10/07 09:26:43;;;;;;;0.17;0.17;;;;;;;;;;4983617;28;20131;-78
2022/10/07 09:29:09;;;;;;;0.20;0.20;;;;;;;;;;4985770;28;20562;-78
2022/10/07 09:31:35;;;;;;;0.13;0.13;;;;;;;;;;4989676;28;20198;-78
2022/10/07 09:34:01;;;;;;;0.20;0.20;;;;;;;;;;4989827;28;20112;-79
2022/10/07 09:36:27;;;;;;;0.10;0.10;;;;;;;;;;4986737;28;20035;-77
2022/10/07 09:38:53;;;;;;;0.20;0.20;;;;;;;;;;4985687;28;20054;-78
2022/10/07 09:41:35;;;;;;;0.20;0.20;;;;;;;;;;4991684;28;20134;-78
2022/10/07 09:44:01;;;;;;;0.20;0.20;;;;;;;;;;4982632;28;20050;-79
2022/10/07 09:46:39;;;;;;;0.10;0.10;;;;;;;;;;4991632;28;20081;-78
2022/10/07 09:49:06;;;;;;;0.13;0.13;;;;;;;;;;4990159;28;20406;-78
2022/10/07 09:51:34;;;;;;;0.10;0.10;;;;;;;;;;4990220;28;20042;-78
2022/10/07 09:54:02;;;;;;;0.20;0.20;;;;;;;;;;4991532;28;20058;-79
2022/10/07 09:56:42;;;;;;;0.10;0.10;;;;;;;;;;4983899;28;20039;-74
2022/10/07 09:59:20;;;;;;;0.20;0.20;;;;;;;;;;4949161;28;20057;-78
2022/10/07 10:01:53;;;;;;;0.20;0.20;;;;;;;;;;4946147;28;20459;-79
2022/10/07 10:04:22;;;;;;;0.20;0.20;;;;;;;;;;4970978;28;20051;-79
2022/10/07 10:06:49;;;;;;;0.10;0.10;;;;;;;;;;4970790;28;20047;-77
2022/10/07 10:09:23;;;;;;;0.10;0.10;;;;;;;;;;4954437;28;20053;-77
2022/10/07 10:12:03;;;;;;;0.20;0.20;;;;;;;;;;4968415;28;20046;-77
2022/10/07 10:14:47;;;;;;;0.20;0.20;;;;;;;;;;4962281;28;20607;-78
2022/10/07 10:17:24;;;;;;;0.10;0.10;;;;;;;;;;4948238;29;20047;-78
2022/10/07 10:19:50;;;;;;;0.20;0.20;;;;;;;;;;4952328;28;20047;-77
2022/10/07 10:22:27;;;;;;;0.10;0.10;;;;;;;;;;4950461;28;20049;-78
2022/10/07 10:27:56;;;;;;;0.10;0.10;;;;;;;;;;4953694;28;20721;-80
2022/10/07 10:30:23;;;;;;;0.20;0.20;;;;;;;;;;4974077;28;20039;-81
2022/10/07 10:33:11;;;;;;;0.10;0.10;;;;;;;;;;4972528;28;20398;-82
2022/10/07 10:35:46;;;;;;;0.10;0.10;;;;;;;;;;4965346;28;20053;-79
2022/10/07 10:38:32;;;;;;;0.20;0.20;;;;;;;;;;4949721;28;20046;-77
2022/10/07 10:41:10;;;;;;;0.20;0.20;;;;;;;;;;4969454;28;20058;-80
2022/10/07 10:43:50;;;;;;;0.20;0.20;;;;;;;;;;4969274;28;20039;-79
2022/10/07 10:46:19;;;;;;;0.20;0.20;;;;;;;;;;4977826;28;20078;-77
2022/10/07 10:48:48;;;;;;;0.20;0.20;;;;;;;;;;4980087;28;20050;-82
2022/10/07 10:51:33;;;;;;;0.10;0.10;;;;;;;;;;4988165;28;20039;-82
2022/10/07 10:54:15;;;;;;;0.20;0.20;;;;;;;;;;4954131;28;20046;-81
2022/10/07 10:56:44;;;;;;;0.10;0.10;;;;;;;;;;4957355;28;20057;-78
2022/10/07 10:59:32;;;;;;;0.10;0.10;;;;;;;;;;4945084;28;20055;-79
2022/10/07 11:05:06;;;;;;;0.20;0.20;;;;;;;;;;4948955;28;20706;-80
2022/10/07 11:07:37;;;;;;;0.10;0.10;;;;;;;;;;4949862;28;20057;-85
2022/10/07 11:10:12;;;;;;;0.13;0.13;;;;;;;;;;4969054;28;20100;-83
2022/10/07 11:12:41;;;;;;;0.10;0.10;;;;;;;;;;4947303;29;20094;-84
2022/10/07 11:15:15;;;;;;;0.10;0.10;;;;;;;;;;4944482;29;20204;-84
2022/10/07 11:17:42;;;;;;;0.20;0.20;;;;;;;;;;4944470;28;20086;-83
2022/10/07 11:20:14;;;;;;;0.15;0.15;;;;;;;;;;4952976;29;20078;-84
2022/10/07 11:22:44;;;;;;;0.20;0.20;;;;;;;;;;4944688;28;20101;-83
2022/10/07 11:25:20;;;;;;;0.20;0.20;;;;;;;;;;4944383;28;20059;-83
2022/10/07 11:27:47;;;;;;;0.20;0.20;;;;;;;;;;4937931;28;20146;-83
2022/10/07 11:30:21;;;;;;;0.20;0.20;;;;;;;;;;4961761;28;20049;-83
2022/10/07 11:33:06;;;;;;;0.20;0.20;;;;;;;;;;4948387;28;20057;-81
2022/10/07 11:35:36;;;;;;;0.13;0.13;;;;;;;;;;4939570;28;20094;-82
2022/10/07 11:38:11;;;;;;;0.20;0.20;;;;;;;;;;4954890;28;20053;-83
2022/10/07 11:41:01;;;;;;;0.20;0.20;;;;;;;;;;4956857;28;20048;-81
2022/10/07 11:43:29;;;;;;;0.20;0.20;;;;;;;;;;4944345;28;20055;-83
2022/10/07 11:45:59;;;;;;;0.15;0.15;;;;;;;;;;4954890;28;20062;-84
2022/10/07 11:48:58;;;;;;;0.10;0.10;;;;;;;;;;4951252;28;20046;-83
2022/10/07 11:51:28;;;;;;;0.20;0.20;;;;;;;;;;4940518;28;20047;-83
2022/10/07 11:53:55;;;;;;;0.20;0.20;;;;;;;;;;4964090;28;20059;-84
2022/10/07 11:56:27;;;;;;;0.20;0.20;;;;;;;;;;4961694;28;20087;-80
2022/10/07 11:59:17;;;;;;;0.20;0.20;;;;;;;;;;4941502;28;20447;-82
2022/10/07 12:01:47;;;;;;;0.13;0.13;;;;;;;;;;4939433;28;20539;-83
2022/10/07 12:04:24;;;;;;;0.20;0.20;;;;;;;;;;4937555;28;20097;-79
2022/10/07 12:07:09;;;;;;;0.10;0.10;;;;;;;;;;4960118;28;20466;-80
2022/10/07 12:09:53;;;;;;;0.10;0.10;;;;;;;;;;4958259;28;20101;-82
2022/10/07 12:12:23;;;;;;;0.20;0.20;;;;;;;;;;4954914;28;20054;-79
2022/10/07 12:15:00;;;;;;;0.20;0.20;;;;;;;;;;4959702;28;20180;-80
2022/10/07 12:17:30;;;;;;;0.20;0.20;;;;;;;;;;4940097;28;20595;-78
2022/10/07 12:20:15;;;;;;;0.10;0.10;;;;;;;;;;4937243;28;20051;-79
2022/10/07 12:22:41;;;;;;;0.20;0.20;;;;;;;;;;4952040;28;20062;-77
2022/10/07 12:25:27;;;;;;;0.20;0.20;;;;;;;;;;4978730;28;20078;-81
2022/10/07 12:27:54;;;;;;;0.20;0.20;;;;;;;;;;4962126;28;20216;-82
2022/10/07 12:30:36;;;;;;;0.20;0.20;;;;;;;;;;4941452;28;20047;-82
2022/10/07 12:33:16;;;;;;;0.20;0.20;;;;;;;;;;4958398;28;20138;-80
2022/10/07 12:35:46;;;;;;;0.20;0.20;;;;;;;;;;4959235;28;20082;-81
2022/10/07 12:38:14;;;;;;;0.10;0.10;;;;;;;;;;4943415;28;21700;-85
2022/10/07 12:40:41;;;;;;;0.20;0.20;;;;;;;;;;4940069;28;20055;-81
2022/10/07 12:43:33;;;;;;;0.20;0.20;;;;;;;;;;4956631;28;20050;-82
2022/10/07 12:46:01;;;;;;;0.20;0.20;;;;;;;;;;4955086;28;20118;-81
2022/10/07 12:48:31;;;;;;;0.20;0.20;;;;;;;;;;4955048;28;20047;-80
2022/10/07 12:50:57;;;;;;;0.20;0.20;;;;;;;;;;4952023;28;20046;-80
2022/10/07 12:53:25;;;;;;;0.20;0.20;;;;;;;;;;4968257;28;20094;-80
2022/10/07 12:55:53;;;;;;;0.20;0.20;;;;;;;;;;4943410;29;20062;-79
2022/10/07 13:01:14;;;;;;;0.20;0.20;;;;;;;;;;4979049;28;20050;-78
2022/10/07 13:03:46;;;;;;;0.10;0.10;;;;;;;;;;4987809;28;20050;-80
2022/10/07 13:06:31;;;;;;;0.20;0.20;;;;;;;;;;4981686;28;20042;-79
2022/10/07 13:09:01;;;;;;;0.20;0.20;;;;;;;;;;4988651;28;20042;-78
2022/10/07 13:11:33;;;;;;;0.20;0.20;;;;;;;;;;4991122;28;20104;-77
2022/10/07 13:14:03;;;;;;;0.20;0.20;;;;;;;;;;4993048;28;20062;-78
2022/10/07 13:16:48;;;;;;;0.20;0.20;;;;;;;;;;4975894;28;20043;-80
2022/10/07 13:19:20;;;;;;;0.20;0.20;;;;;;;;;;4970069;28;20046;-79
2022/10/07 13:21:53;;;;;;;0.17;0.17;;;;;;;;;;4978270;28;20085;-79
2022/10/07 13:24:21;;;;;;;0.10;0.10;;;;;;;;;;4976308;28;20047;-80
2022/10/07 13:26:47;;;;;;;0.20;0.20;;;;;;;;;;4975172;28;20057;-82
2022/10/07 13:29:22;;;;;;;0.20;0.20;;;;;;;;;;4974266;28;20046;-80
2022/10/07 13:32:07;;;;;;;0.10;0.10;;;;;;;;;;4976051;28;20046;-78
2022/10/07 13:34:33;;;;;;;0.20;0.20;;;;;;;;;;4977469;28;20058;-83
2022/10/07 13:36:59;;;;;;;0.20;0.20;;;;;;;;;;4972815;28;20050;-82
2022/10/07 13:39:26;;;;;;;0.20;0.20;;;;;;;;;;4978522;28;20120;-82
2022/10/07 13:41:56;;;;;;;0.20;0.20;;;;;;;;;;4978012;28;20133;-82
2022/10/07 13:44:24;;;;;;;0.20;0.20;;;;;;;;;;4981365;28;20053;-81
2022/10/07 13:46:53;;;;;;;0.20;0.20;;;;;;;;;;4988266;28;20096;-82
2022/10/07 13:49:25;;;;;;;0.20;0.20;;;;;;;;;;4982442;28;20127;-79
2022/10/07 13:51:50;;;;;;;;;;;;;;;;;;4971890;28;20569;-79
2022/10/07 13:54:24;;;;;;;0.20;0.20;;;;;;;;;;4976264;28;19932;-81
2022/10/07 13:56:50;;;;;;;0.30;0.30;;;;;;;;;;4972787;28;20062;-80
2022/10/07 13:59:17;;;;;;;0.20;0.20;;;;;;;;;;4966509;28;20073;-81
2022/10/07 14:01:44;;;;;;;0.20;0.20;;;;;;;;;;4976885;28;20051;-81
2022/10/07 14:04:18;;;;;;;0.15;0.15;;;;;;;;;;4971048;28;20043;-82
2022/10/07 14:06:52;;;;;;;0.10;0.10;;;;;;;;;;4941428;28;20554;-83
2022/10/07 14:09:25;;;;;;;0.20;0.20;;;;;;;;;;4945086;28;20078;-83
2022/10/07 14:12:00;;;;;;;0.20;0.20;;;;;;;;;;4942727;28;20070;-81
2022/10/07 14:14:31;;;;;;;0.20;0.20;;;;;;;;;;4941165;28;20073;-82
2022/10/07 14:17:00;;;;;;;0.20;0.20;;;;;;;;;;4942422;28;20039;-82
2022/10/07 14:19:30;;;;;;;0.20;0.20;;;;;;;;;;4941451;28;20477;-82
2022/10/07 14:21:56;;;;;;;0.20;0.20;;;;;;;;;;4954779;28;20059;-82
2022/10/07 14:24:25;;;;;;;0.20;0.20;;;;;;;;;;4937119;29;20122;-81
2022/10/07 14:26:51;;;;;;;0.10;0.10;;;;;;;;;;4944750;28;20165;-82
2022/10/07 14:29:27;;;;;;;0.20;0.20;;;;;;;;;;4947189;28;20137;-81
2022/10/07 14:35:19;;;;;;;0.17;0.17;;;;;;;;;;4956007;28;20054;-83
2022/10/07 14:37:46;;;;;;;0.20;0.20;;;;;;;;;;4955106;28;20078;-80
2022/10/07 14:40:23;;;;;;;0.10;0.10;;;;;;;;;;4955086;28;20074;-81
2022/10/07 14:42:53;;;;;;;0.20;0.20;;;;;;;;;;4942742;28;20089;-81
2022/10/07 14:45:20;;;;;;;0.20;0.20;;;;;;;;;;4956028;28;20054;-81
2022/10/07 14:47:47;;;;;;;0.10;0.10;;;;;;;;;;4961096;28;21396;-82
2022/10/07 14:50:18;;;;;;;0.10;0.10;;;;;;;;;;4948879;28;20069;-82
2022/10/07 14:52:45;;;;;;;0.20;0.20;;;;;;;;;;4945308;28;20406;-80
2022/10/07 14:55:14;;;;;;;0.20;0.20;;;;;;;;;;4965376;28;20046;-81
2022/10/07 14:57:41;;;;;;;0.15;0.15;;;;;;;;;;4971820;28;20051;-82
2022/10/07 15:00:12;;;;;;;0.20;0.20;;;;;;;;;;4961123;28;20058;-81
2022/10/07 15:02:38;;;;;;;0.20;0.20;;;;;;;;;;4973189;28;20049;-82
2022/10/07 15:05:04;;;;;;;0.20;0.20;;;;;;;;;;4960758;28;20077;-81
2022/10/07 15:07:30;;;;;;;0.20;0.20;;;;;;;;;;4959896;28;20117;-82
2022/10/07 15:09:56;;;;;;;0.17;0.17;;;;;;;;;;4961935;28;20383;-81
2022/10/07 15:12:26;;;;;;;0.20;0.20;;;;;;;;;;4964727;28;20038;-81
2022/10/07 15:14:53;;;;;;;0.20;0.20;;;;;;;;;;4958018;28;20188;-81
2022/10/07 15:17:19;;;;;;;0.20;0.20;;;;;;;;;;4984839;28;20089;-81
2022/10/07 15:19:45;;;;;;;0.13;0.13;;;;;;;;;;4986031;28;20505;-82
2022/10/07 15:22:16;;;;;;;0.10;0.10;;;;;;;;;;4969360;28;20042;-81